Time;durP1;ratioP1;P1;durP2;ratioP2;P2;SDS_P1;SDS_P2;PMS_P1;PMS_P2;Temp;Humidity;BMP_temperature;BMP_pressure;BME280_temperature;BME280_humidity;BME280_pressure;Samples;Min_cycle;Max_cycle;Signal;HPM_P1;HPM_P2
2022/05/14 00:04:00;;;;;;;9.90;6.47;;;11.90;98.40;;;;;;10061012;29;20036;-91
2022/05/14 00:09:04;;;;;;;10.55;7.00;;;12.10;96.90;;;;;;10073191;29;20084;-91
2022/05/14 00:14:07;;;;;;;11.07;7.95;;;12.20;96.00;;;;;;10072885;29;20094;-91
2022/05/14 00:19:08;;;;;;;13.05;7.30;;;11.90;95.60;;;;;;10071243;29;20785;-90
2022/05/14 00:24:10;;;;;;;12.65;7.90;;;11.60;96.30;;;;;;10072938;29;20474;-89
2022/05/14 00:29:10;;;;;;;10.80;8.20;;;11.60;97.10;;;;;;10071843;29;20052;-90
2022/05/14 00:34:11;;;;;;;14.82;8.18;;;11.30;97.90;;;;;;10043258;29;20132;-90
2022/05/14 00:39:12;;;;;;;18.90;8.73;;;11.10;99.40;;;;;;10064332;29;20045;-88
2022/05/14 00:44:13;;;;;;;10.10;8.00;;;10.80;99.90;;;;;;10071785;29;20032;-93
2022/05/14 00:49:18;;;;;;;10.90;8.27;;;10.60;99.90;;;;;;10070897;29;20040;-91
2022/05/14 00:54:26;;;;;;;15.20;9.40;;;10.30;99.90;;;;;;10071707;29;20087;-91
2022/05/14 00:59:30;;;;;;;16.80;9.47;;;10.10;99.90;;;;;;10072183;29;20036;-91
2022/05/14 01:04:34;;;;;;;15.60;8.87;;;9.90;99.90;;;;;;10070976;29;20033;-89
2022/05/14 01:09:42;;;;;;;15.20;9.27;;;9.90;99.90;;;;;;10071313;29;20037;-90
2022/05/14 01:14:54;;;;;;;15.40;10.07;;;9.90;99.90;;;;;;10071414;29;20040;-90
2022/05/14 01:20:01;;;;;;;16.23;10.00;;;9.80;99.90;;;;;;10068451;29;20096;-91
2022/05/14 01:43:27;;;;;;;15.90;10.47;;;9.50;99.90;;;;;;10053691;29;20637;-92
2022/05/14 01:48:38;;;;;;;20.87;12.17;;;9.30;99.90;;;;;;10046801;29;20140;-91
2022/05/14 01:53:55;;;;;;;21.87;12.67;;;9.20;99.90;;;;;;10069519;29;20044;-91
2022/05/14 01:59:44;;;;;;;18.43;12.07;;;9.10;99.90;;;;;;10071173;29;20549;-93
2022/05/14 02:05:07;;;;;;;20.17;12.67;;;9.10;99.90;;;;;;10047334;29;20046;-90
2022/05/14 02:10:11;;;;;;;22.83;13.00;;;8.90;99.90;;;;;;10029620;29;20137;-91
2022/05/14 02:15:54;;;;;;;20.17;12.77;;;8.80;99.90;;;;;;10034156;29;20052;-92
2022/05/14 02:21:24;;;;;;;18.57;12.30;;;8.70;99.90;;;;;;10038881;29;20033;-91
2022/05/14 02:26:41;;;;;;;19.10;12.70;;;8.70;99.90;;;;;;10028914;29;20399;-89
2022/05/14 02:31:55;;;;;;;18.33;12.50;;;8.70;99.90;;;;;;10055298;29;20048;-90
2022/05/14 02:37:04;;;;;;;17.47;11.93;;;8.60;99.90;;;;;;10104057;29;20486;-90
2022/05/14 02:42:13;;;;;;;15.87;10.97;;;8.70;99.90;;;;;;10076578;29;20121;-91
2022/05/14 02:47:14;;;;;;;13.23;9.10;;;8.70;99.90;;;;;;10076809;29;20045;-89
2022/05/14 02:52:17;;;;;;;13.13;9.37;;;8.80;99.90;;;;;;10074324;29;20037;-91
2022/05/14 02:57:18;;;;;;;14.03;8.90;;;8.90;99.90;;;;;;10075557;29;20051;-90
2022/05/14 03:02:21;;;;;;;14.97;9.50;;;9.00;99.90;;;;;;10071204;29;20041;-91
2022/05/14 03:07:22;;;;;;;15.60;10.10;;;9.10;99.90;;;;;;10067485;29;20033;-89
2022/05/14 03:12:24;;;;;;;21.93;11.27;;;9.00;99.90;;;;;;10052227;29;20054;-88
2022/05/14 03:17:24;;;;;;;17.27;10.40;;;8.80;99.90;;;;;;10054171;29;20143;-89
2022/05/14 03:22:53;;;;;;;;;;;;;;;;;;;;;
2022/05/14 03:28:07;;;;;;;14.87;10.20;;;8.70;99.90;;;;;;10091850;29;20053;-90
2022/05/14 03:33:13;;;;;;;14.83;9.10;;;8.80;99.90;;;;;;10073820;29;20068;-91
2022/05/14 03:38:13;;;;;;;;;;;8.80;99.90;;;;;;10049450;29;20126;-87
2022/05/14 03:43:15;;;;;;;16.67;10.70;;;8.90;99.90;;;;;;10052191;29;19919;-88
2022/05/14 03:48:18;;;;;;;16.87;9.87;;;9.00;99.90;;;;;;10042026;29;20033;-92
2022/05/14 03:53:19;;;;;;;20.33;10.80;;;9.20;99.90;;;;;;10026909;29;20045;-88
2022/05/14 03:58:23;;;;;;;15.93;10.40;;;9.30;99.90;;;;;;10033823;29;20033;-90
2022/05/14 04:03:25;;;;;;;16.40;9.30;;;9.40;99.90;;;;;;10030092;29;20034;-90
2022/05/14 04:08:26;;;;;;;17.27;9.60;;;9.60;99.90;;;;;;10025137;29;20044;-91
2022/05/14 04:13:27;;;;;;;16.70;10.50;;;9.80;99.90;;;;;;9997212;29;20104;-88
2022/05/14 04:18:27;;;;;;;16.20;10.57;;;10.00;99.90;;;;;;10021196;29;20036;-90
2022/05/14 04:23:30;;;;;;;17.53;10.77;;;10.10;99.90;;;;;;10024916;29;20029;-89
2022/05/14 04:28:30;;;;;;;18.87;10.93;;;10.30;99.90;;;;;;9998015;29;20034;-89
2022/05/14 04:33:31;;;;;;;18.98;10.98;;;10.40;99.90;;;;;;9994648;29;20026;-89
2022/05/14 04:38:32;;;;;;;17.80;11.23;;;10.60;99.90;;;;;;10020327;29;20057;-89
2022/05/14 04:43:33;;;;;;;23.23;12.85;;;10.80;99.90;;;;;;10032180;29;20471;-88
2022/05/14 04:48:35;;;;;;;18.55;12.20;;;11.00;99.90;;;;;;10032594;29;20044;-88
2022/05/14 04:53:36;;;;;;;24.52;13.68;;;11.20;99.90;;;;;;10042515;29;20041;-88
2022/05/14 04:58:37;;;;;;;33.78;17.67;;;11.40;99.90;;;;;;10071095;29;20495;-89
2022/05/14 05:03:38;;;;;;;28.45;16.40;;;11.60;99.90;;;;;;10070604;29;20120;-89
2022/05/14 05:08:38;;;;;;;29.17;17.17;;;11.80;99.90;;;;;;10070374;29;20048;-88
2022/05/14 05:13:40;;;;;;;24.15;12.98;;;12.00;99.90;;;;;;10070881;29;20033;-90
2022/05/14 05:18:40;;;;;;;23.75;11.95;;;12.20;99.90;;;;;;10075051;29;20037;-89
2022/05/14 05:23:41;;;;;;;16.05;9.52;;;12.40;99.90;;;;;;10064629;29;20033;-90
2022/05/14 05:28:42;;;;;;;11.43;7.97;;;12.70;99.90;;;;;;10077898;29;20043;-88
2022/05/14 05:33:43;;;;;;;11.95;7.57;;;12.80;99.90;;;;;;10078064;29;20059;-90
2022/05/14 05:38:43;;;;;;;13.38;7.35;;;13.00;99.90;;;;;;10076764;29;20065;-87
2022/05/14 05:43:45;;;;;;;12.00;7.10;;;13.10;99.60;;;;;;10076363;29;20152;-89
2022/05/14 05:48:46;;;;;;;10.05;6.88;;;13.40;98.50;;;;;;10058315;29;20390;-88
2022/05/14 05:59:07;;;;;;;8.95;6.93;;;13.70;96.40;;;;;;10072263;29;20410;-87
2022/05/14 06:04:07;;;;;;;10.68;5.70;;;14.00;95.80;;;;;;10068697;29;20033;-87
2022/05/14 06:09:16;;;;;;;7.78;4.45;;;14.20;94.30;;;;;;10069181;29;20060;-85
2022/05/14 06:14:17;;;;;;;8.27;4.47;;;14.40;93.50;;;;;;10046739;29;20510;-85
2022/05/14 06:19:18;;;;;;;6.47;5.38;;;14.60;92.20;;;;;;10038660;29;20066;-86
2022/05/14 06:24:18;;;;;;;9.80;4.60;;;14.80;90.80;;;;;;10074135;29;20120;-89
2022/05/14 06:29:19;;;;;;;10.63;4.30;;;15.00;90.80;;;;;;10068375;29;20040;-86
2022/05/14 06:34:20;;;;;;;10.45;4.20;;;15.20;90.20;;;;;;10068161;29;20486;-85
2022/05/14 06:39:21;;;;;;;5.25;3.78;;;15.40;89.00;;;;;;10087207;29;20053;-84
2022/05/14 06:44:21;;;;;;;5.75;3.65;;;15.60;86.40;;;;;;10052696;29;20434;-87
2022/05/14 06:49:22;;;;;;;9.32;3.28;;;15.70;86.60;;;;;;10075801;29;20040;-86
2022/05/14 06:54:23;;;;;;;7.72;3.20;;;15.90;85.80;;;;;;10077324;29;20049;-86
2022/05/14 06:59:24;;;;;;;7.60;3.60;;;16.10;83.40;;;;;;10043234;29;20611;-86
2022/05/14 07:09:44;;;;;;;8.27;4.55;;;18.20;77.60;;;;;;10091363;29;20072;-88
2022/05/14 07:14:45;;;;;;;6.13;3.90;;;19.10;73.10;;;;;;10086252;29;20124;-89
2022/05/14 07:19:46;;;;;;;7.10;2.70;;;19.30;70.90;;;;;;10061116;29;20037;-88
2022/05/14 07:24:47;;;;;;;4.75;2.85;;;19.70;69.90;;;;;;10073370;29;20037;-85
2022/05/14 07:29:50;;;;;;;8.63;2.67;;;20.20;68.10;;;;;;10073037;29;20037;-90
2022/05/14 07:34:51;;;;;;;6.85;2.75;;;20.20;65.90;;;;;;10064853;29;20135;-88
2022/05/14 07:40:04;;;;;;;10.70;3.13;;;19.90;65.80;;;;;;10060386;29;20057;-87
2022/05/14 07:45:08;;;;;;;8.57;2.50;;;19.50;66.70;;;;;;10038643;29;20486;-87
2022/05/14 07:50:09;;;;;;;9.90;2.63;;;19.20;66.50;;;;;;10068274;29;20037;-89
2022/05/14 07:55:10;;;;;;;5.68;3.08;;;18.80;67.10;;;;;;10067602;29;20040;-87
2022/05/14 08:00:12;;;;;;;4.55;3.00;;;18.90;67.10;;;;;;10039992;29;20037;-86
2022/05/14 08:05:14;;;;;;;9.05;3.03;;;18.60;67.30;;;;;;10069844;29;20701;-88
2022/05/14 08:10:16;;;;;;;4.82;3.00;;;18.70;67.80;;;;;;10037221;29;20063;-88
2022/05/14 08:15:18;;;;;;;7.18;3.65;;;18.90;66.00;;;;;;10054797;29;20053;-88
2022/05/14 08:20:19;;;;;;;9.30;3.00;;;19.10;66.20;;;;;;10043289;29;20037;-89
2022/05/14 08:25:20;;;;;;;10.43;3.47;;;19.30;66.10;;;;;;10039352;29;20056;-89
2022/05/14 08:30:27;;;;;;;7.38;3.20;;;19.20;67.60;;;;;;10051511;29;20040;-91
2022/05/14 08:35:31;;;;;;;5.15;3.10;;;19.00;66.50;;;;;;10067023;29;20053;-87
2022/05/14 08:40:37;;;;;;;5.97;2.72;;;19.30;67.10;;;;;;10076430;29;20120;-90
2022/05/14 08:45:38;;;;;;;3.38;2.70;;;19.50;64.80;;;;;;10060721;29;20029;-89
2022/05/14 08:50:39;;;;;;;6.45;3.05;;;19.90;64.70;;;;;;10034863;29;20068;-87
2022/05/14 08:56:20;;;;;;;5.90;3.00;;;19.30;65.50;;;;;;10069902;29;20036;-91
2022/05/14 09:01:25;;;;;;;8.60;3.53;;;19.50;66.70;;;;;;10036990;29;20387;-90
2022/05/14 09:06:26;;;;;;;6.03;3.40;;;19.60;64.50;;;;;;10065956;29;20124;-88
2022/05/14 09:11:39;;;;;;;4.32;3.00;;;19.50;66.70;;;;;;10086597;29;20116;-87
2022/05/14 09:16:39;;;;;;;7.07;3.08;;;19.50;64.30;;;;;;10068538;29;20052;-87
2022/05/14 09:21:49;;;;;;;10.10;3.80;;;20.10;63.80;;;;;;10060156;29;20048;-88
2022/05/14 09:26:50;;;;;;;5.80;3.85;;;19.70;64.60;;;;;;10049185;29;20025;-87
2022/05/14 09:32:01;;;;;;;6.20;3.55;;;19.60;62.90;;;;;;10076755;29;20029;-88
2022/05/14 09:37:09;;;;;;;10.25;4.05;;;19.20;63.70;;;;;;10058186;29;20053;-87
2022/05/14 09:42:33;;;;;;;8.10;2.92;;;19.00;64.70;;;;;;10071453;29;20033;-87
2022/05/14 09:47:34;;;;;;;6.75;3.20;;;19.90;66.30;;;;;;10058217;29;20056;-85
2022/05/14 09:52:36;;;;;;;9.23;4.15;;;20.40;63.50;;;;;;10063342;29;20048;-85
2022/05/14 09:57:47;;;;;;;8.20;3.85;;;20.30;64.10;;;;;;10068996;29;20136;-88
2022/05/14 10:03:06;;;;;;;8.55;3.00;;;20.90;62.70;;;;;;10082463;29;20029;-87
2022/05/14 10:08:41;;;;;;;4.47;2.85;;;21.40;61.80;;;;;;10089740;29;20600;-86
2022/05/14 10:13:47;;;;;;;4.20;2.60;;;21.50;59.10;;;;;;10076300;29;20029;-86
2022/05/14 10:19:06;;;;;;;6.15;3.13;;;21.40;58.30;;;;;;10091496;29;20447;-86
2022/05/14 10:30:05;;;;;;;5.70;3.63;;;20.80;60.30;;;;;;10093336;29;20041;-87
2022/05/14 10:35:27;;;;;;;8.07;3.78;;;20.80;59.70;;;;;;10075072;29;20096;-85
2022/05/14 10:40:35;;;;;;;8.60;3.42;;;20.70;59.90;;;;;;10092692;29;20860;-87
2022/05/14 10:45:44;;;;;;;5.75;2.97;;;20.10;61.80;;;;;;10091904;29;20032;-84
2022/05/14 10:50:44;;;;;;;6.68;3.50;;;20.50;62.20;;;;;;10075207;29;20560;-87
2022/05/14 10:56:10;;;;;;;6.28;3.35;;;20.40;61.90;;;;;;10074601;29;20040;-88
2022/05/14 11:01:32;;;;;;;5.50;2.92;;;20.10;62.00;;;;;;10074725;29;20548;-87
2022/05/14 11:06:46;;;;;;;7.68;2.67;;;20.30;64.50;;;;;;10092108;29;20033;-89
2022/05/14 11:11:55;;;;;;;10.05;4.70;;;20.70;60.00;;;;;;10074540;29;20037;-88
2022/05/14 11:16:56;;;;;;;7.88;4.78;;;21.00;61.70;;;;;;10089925;29;20041;-89
2022/05/14 11:21:58;;;;;;;5.10;2.88;;;21.30;61.10;;;;;;10074217;29;20482;-86
2022/05/14 11:26:59;;;;;;;6.90;3.53;;;21.10;59.50;;;;;;10073669;29;20500;-87
2022/05/14 11:32:12;;;;;;;6.38;3.20;;;21.20;59.40;;;;;;10073600;29;20036;-87
2022/05/14 11:37:30;;;;;;;5.13;3.10;;;20.90;59.90;;;;;;10073605;29;20303;-87
2022/05/14 11:42:31;;;;;;;3.47;2.35;;;20.60;59.10;;;;;;10073424;29;20044;-88
2022/05/14 11:47:32;;;;;;;9.18;3.47;;;20.20;60.80;;;;;;10088503;29;20037;-88
2022/05/14 11:53:03;;;;;;;5.93;3.28;;;20.40;61.90;;;;;;10087050;29;20386;-87
2022/05/14 11:58:12;;;;;;;11.02;5.07;;;20.90;60.80;;;;;;10089303;29;20715;-87
2022/05/14 12:03:30;;;;;;;8.77;3.88;;;22.20;58.20;;;;;;10072622;29;20078;-87
2022/05/14 12:08:47;;;;;;;7.88;4.35;;;22.70;54.60;;;;;;10072322;29;20029;-87
2022/05/14 12:13:56;;;;;;;8.10;3.80;;;21.60;54.90;;;;;;10087623;29;20037;-86
2022/05/14 12:18:58;;;;;;;9.93;4.45;;;21.90;58.70;;;;;;10089073;29;20359;-88
2022/05/14 12:23:59;;;;;;;6.93;4.05;;;22.50;55.10;;;;;;10072124;29;20033;-87
2022/05/14 12:29:12;;;;;;;24.58;13.38;;;23.00;54.40;;;;;;10088449;29;20044;-89
2022/05/14 12:34:13;;;;;;;12.85;5.65;;;22.50;53.30;;;;;;10071348;29;20045;-86
2022/05/14 12:39:24;;;;;;;9.05;4.85;;;21.60;54.90;;;;;;10071103;29;20057;-87
2022/05/14 12:44:32;;;;;;;6.90;4.30;;;21.20;57.90;;;;;;10071101;29;20064;-87
2022/05/14 12:49:43;;;;;;;7.93;5.60;;;20.80;57.30;;;;;;10071367;29;20037;-89
2022/05/14 12:54:49;;;;;;;10.15;4.00;;;20.80;58.60;;;;;;10071205;29;20106;-88
2022/05/14 12:59:51;;;;;;;9.02;4.10;;;21.30;58.90;;;;;;10086331;29;20044;-85
2022/05/14 13:05:09;;;;;;;9.13;5.40;;;21.90;56.90;;;;;;10087287;29;20029;-88
2022/05/14 13:10:10;;;;;;;8.52;4.22;;;21.60;56.50;;;;;;10087393;29;20089;-87
2022/05/14 13:15:11;;;;;;;7.90;4.55;;;21.60;57.20;;;;;;10070670;29;20051;-87
2022/05/14 13:20:22;;;;;;;8.90;3.60;;;21.60;57.80;;;;;;10053784;29;20033;-86
2022/05/14 13:25:35;;;;;;;6.20;3.88;;;22.10;57.60;;;;;;10070080;29;20687;-88
2022/05/14 13:30:37;;;;;;;8.75;4.13;;;22.30;56.40;;;;;;10069812;29;20043;-87
2022/05/14 13:40:59;;;;;;;7.55;3.90;;;22.30;54.10;;;;;;10094704;29;20189;-87
2022/05/14 13:46:11;;;;;;;7.30;4.30;;;22.20;55.90;;;;;;10077358;29;20092;-89
2022/05/14 13:51:18;;;;;;;7.95;4.25;;;21.90;56.10;;;;;;10077177;29;20025;-89
2022/05/14 13:56:22;;;;;;;8.05;3.67;;;21.30;55.90;;;;;;10077096;29;20040;-88
2022/05/14 14:01:36;;;;;;;6.05;3.63;;;20.70;58.60;;;;;;10076988;29;20092;-88
2022/05/14 14:06:37;;;;;;;6.47;4.40;;;20.40;58.90;;;;;;10077165;29;20041;-88
2022/05/14 14:11:41;;;;;;;8.95;5.15;;;20.60;61.10;;;;;;10076676;29;20029;-88
2022/05/14 14:16:42;;;;;;;3.70;3.40;;;21.00;59.00;;;;;;10076477;29;20120;-87
2022/05/14 14:21:44;;;;;;;12.95;5.28;;;20.90;58.20;;;;;;10076387;29;20032;-89
2022/05/14 14:26:50;;;;;;;8.23;4.68;;;20.50;59.70;;;;;;10092382;29;20025;-87
2022/05/14 14:31:51;;;;;;;7.20;4.85;;;20.50;59.10;;;;;;10075488;29;20124;-89
2022/05/14 14:36:52;;;;;;;12.70;4.30;;;20.40;60.80;;;;;;10089050;29;20491;-89
2022/05/14 14:41:54;;;;;;;6.00;3.58;;;20.40;59.80;;;;;;10073977;29;20029;-87
2022/05/14 14:46:57;;;;;;;16.17;4.15;;;20.30;61.20;;;;;;10073966;29;20045;-89
2022/05/14 14:51:58;;;;;;;6.40;4.22;;;20.30;60.30;;;;;;10074444;29;20119;-88
2022/05/14 14:56:59;;;;;;;7.68;4.38;;;20.10;61.10;;;;;;10075275;29;20408;-88
2022/05/14 15:02:15;;;;;;;6.78;4.00;;;20.00;60.80;;;;;;10074103;29;20132;-89
2022/05/14 15:07:17;;;;;;;5.18;3.72;;;19.80;60.70;;;;;;10073942;29;20131;-88
2022/05/14 15:12:18;;;;;;;4.45;3.72;;;19.60;61.40;;;;;;10089907;29;20085;-89
2022/05/14 15:17:19;;;;;;;4.00;3.45;;;19.50;61.70;;;;;;10074645;29;20043;-88
2022/05/14 15:22:21;;;;;;;6.80;3.83;;;19.40;60.90;;;;;;10074490;29;20029;-87
2022/05/14 15:27:21;;;;;;;7.32;4.10;;;19.40;61.60;;;;;;10074082;29;20101;-88
2022/05/14 15:32:27;;;;;;;9.35;4.63;;;19.30;62.30;;;;;;10074039;29;20119;-89
2022/05/14 15:37:27;;;;;;;;;;;19.20;62.80;;;;;;10090651;29;20061;-87
2022/05/14 15:42:49;;;;;;;6.07;3.92;;;19.40;62.90;;;;;;10089013;29;19915;-88
2022/05/14 15:47:50;;;;;;;5.35;3.55;;;19.30;62.50;;;;;;10073010;29;20708;-87
2022/05/14 15:52:51;;;;;;;7.45;4.10;;;19.10;63.90;;;;;;10073463;29;20032;-88
2022/05/14 15:57:52;;;;;;;5.25;3.65;;;19.10;62.80;;;;;;10072974;29;20040;-87
2022/05/14 16:02:58;;;;;;;7.68;3.90;;;18.90;64.60;;;;;;10089795;29;20385;-87
2022/05/14 16:07:59;;;;;;;7.68;4.10;;;18.90;64.60;;;;;;10057441;29;20040;-88
2022/05/14 16:18:20;;;;;;;6.15;4.40;;;19.10;65.40;;;;;;10073068;29;20072;-86
2022/05/14 16:23:25;;;;;;;6.95;4.75;;;19.00;65.60;;;;;;10082446;29;20504;-89
2022/05/14 16:28:27;;;;;;;7.05;4.82;;;18.90;65.70;;;;;;10067319;29;20064;-87
2022/05/14 16:33:28;;;;;;;9.45;5.93;;;18.90;65.50;;;;;;10083138;29;20603;-88
2022/05/14 16:38:30;;;;;;;7.97;5.22;;;18.80;66.20;;;;;;10085835;29;20061;-91
2022/05/14 16:43:34;;;;;;;13.75;8.30;;;18.70;66.80;;;;;;10070113;29;20055;-88
2022/05/14 16:48:37;;;;;;;9.05;6.03;;;18.90;68.30;;;;;;10058610;29;20040;-88
2022/05/14 16:53:41;;;;;;;9.25;7.30;;;18.90;67.30;;;;;;10058215;29;20065;-88
2022/05/14 16:58:44;;;;;;;8.02;4.45;;;18.90;67.00;;;;;;10078631;29;20063;-88
2022/05/14 17:03:45;;;;;;;9.68;5.35;;;18.70;67.90;;;;;;10085426;29;20264;-91
2022/05/14 17:08:48;;;;;;;8.25;5.10;;;18.50;68.10;;;;;;10058107;29;20032;-89
2022/05/14 17:13:53;;;;;;;8.30;5.57;;;18.40;68.90;;;;;;10066439;29;20128;-89
2022/05/14 17:18:54;;;;;;;8.00;5.03;;;18.20;69.50;;;;;;10065596;29;20032;-88
2022/05/14 17:23:57;;;;;;;7.40;5.35;;;18.00;69.60;;;;;;10074483;29;20029;-90
2022/05/14 17:28:57;;;;;;;6.38;4.78;;;17.80;70.00;;;;;;10065233;29;20029;-90
2022/05/14 17:33:58;;;;;;;8.95;5.60;;;17.70;70.70;;;;;;10064506;29;20672;-90
2022/05/14 17:44:44;;;;;;;10.20;5.82;;;17.50;70.90;;;;;;10079267;29;20053;-90
2022/05/14 17:49:52;;;;;;;10.25;5.78;;;17.40;71.50;;;;;;10077090;29;20037;-90
2022/05/14 17:54:53;;;;;;;6.78;5.82;;;17.20;72.00;;;;;;10062198;29;20378;-90
2022/05/14 18:00:00;;;;;;;8.68;5.30;;;17.10;72.10;;;;;;10054411;29;20029;-88
2022/05/14 18:05:01;;;;;;;13.00;6.13;;;16.90;73.00;;;;;;10049915;29;20031;-88
2022/05/14 18:10:09;;;;;;;8.35;5.28;;;16.70;73.40;;;;;;10062860;29;20027;-89
2022/05/14 18:15:11;;;;;;;12.20;6.47;;;16.40;76.00;;;;;;10066962;29;20065;-90
2022/05/14 18:20:17;;;;;;;9.48;6.20;;;15.80;78.50;;;;;;10060516;29;20037;-89
2022/05/14 18:25:19;;;;;;;;;;;15.30;79.60;;;;;;10070480;29;20060;-88
2022/05/14 18:30:28;;;;;;;10.38;5.47;;;14.90;81.20;;;;;;10074592;29;19922;-88
2022/05/14 18:35:37;;;;;;;10.18;5.88;;;14.60;81.90;;;;;;10057566;29;20053;-89
2022/05/14 18:40:40;;;;;;;9.02;5.47;;;14.40;82.60;;;;;;10034257;29;20045;-88
2022/05/14 18:45:42;;;;;;;8.52;5.60;;;14.20;82.40;;;;;;10032706;29;20021;-88
2022/05/14 18:50:43;;;;;;;12.48;5.80;;;14.10;82.30;;;;;;10020261;29;20424;-89
2022/05/14 18:55:44;;;;;;;10.63;6.18;;;14.00;83.70;;;;;;10033810;29;20049;-89
2022/05/14 19:00:47;;;;;;;7.28;5.32;;;13.90;84.10;;;;;;10032189;29;20081;-89
2022/05/14 19:11:08;;;;;;;9.80;6.68;;;13.60;85.40;;;;;;10043612;29;20049;-88
2022/05/14 19:16:10;;;;;;;8.45;5.72;;;13.50;86.40;;;;;;10026344;29;20037;-89
2022/05/14 19:21:12;;;;;;;8.68;6.32;;;13.30;87.60;;;;;;10025962;29;20033;-89
2022/05/14 19:26:13;;;;;;;9.13;6.15;;;13.10;88.50;;;;;;10022340;29;20025;-88
2022/05/14 19:31:15;;;;;;;9.88;5.60;;;13.10;89.80;;;;;;10022076;29;20458;-87
2022/05/14 19:36:19;;;;;;;10.00;6.05;;;13.00;90.20;;;;;;10043705;29;20058;-87
2022/05/14 19:41:29;;;;;;;13.75;5.88;;;13.10;90.70;;;;;;10057516;29;20041;-89
2022/05/14 19:46:35;;;;;;;11.30;5.70;;;13.20;90.90;;;;;;10059812;29;20127;-89
2022/05/14 19:51:39;;;;;;;14.52;6.57;;;13.20;91.20;;;;;;10065646;29;20040;-90
2022/05/14 19:56:52;;;;;;;12.95;5.70;;;13.30;91.70;;;;;;10067989;29;20523;-92
2022/05/14 20:01:53;;;;;;;8.75;5.38;;;13.30;92.20;;;;;;10079418;29;20047;-89
2022/05/14 20:06:54;;;;;;;9.35;4.95;;;13.30;92.30;;;;;;10060602;29;20035;-87
2022/05/14 20:11:55;;;;;;;10.30;5.22;;;13.40;92.40;;;;;;10066039;29;20398;-88
2022/05/14 20:22:16;;;;;;;10.80;4.88;;;13.50;92.10;;;;;;10071062;29;20045;-90
2022/05/14 20:27:17;;;;;;;9.00;5.10;;;13.50;92.00;;;;;;10070376;29;20577;-90
2022/05/14 20:32:18;;;;;;;9.80;4.68;;;13.60;91.90;;;;;;9918662;23;5141713;-88
2022/05/14 20:37:19;;;;;;;11.68;5.00;;;13.50;91.60;;;;;;10082113;29;20394;-89
2022/05/14 20:42:20;;;;;;;8.13;4.97;;;13.40;91.50;;;;;;10090749;29;20128;-88
2022/05/14 20:47:22;;;;;;;9.90;5.53;;;13.40;91.70;;;;;;10097887;29;20065;-89
2022/05/14 20:52:22;;;;;;;14.65;5.88;;;13.30;91.60;;;;;;10096670;29;20032;-89
2022/05/14 20:57:23;;;;;;;10.77;4.90;;;13.30;91.50;;;;;;10092555;29;20051;-89
2022/05/14 21:02:24;;;;;;;12.18;5.88;;;13.10;91.40;;;;;;10082194;29;20128;-90
2022/05/14 21:07:25;;;;;;;9.02;5.43;;;13.00;90.90;;;;;;10094596;29;20033;-91
2022/05/14 21:12:29;;;;;;;10.55;5.55;;;13.00;91.10;;;;;;10091472;29;20111;-89
2022/05/14 21:17:31;;;;;;;12.00;5.30;;;12.90;91.40;;;;;;10115079;29;20048;-92
2022/05/14 21:22:32;;;;;;;8.98;4.90;;;12.90;91.80;;;;;;10095428;29;20389;-89
2022/05/14 21:27:33;;;;;;;13.45;5.72;;;12.80;92.20;;;;;;10086256;29;20057;-89
2022/05/14 21:32:34;;;;;;;13.18;5.80;;;12.80;92.10;;;;;;10103654;29;20135;-88
2022/05/14 21:37:41;;;;;;;10.45;5.72;;;12.80;92.00;;;;;;10088647;29;20059;-89
2022/05/14 21:42:51;;;;;;;10.88;5.43;;;12.80;92.60;;;;;;10100145;29;20028;-89
2022/05/14 21:48:19;;;;;;;8.52;5.50;;;12.70;92.40;;;;;;10092735;29;20048;-91
2022/05/14 21:53:21;;;;;;;11.93;5.47;;;12.70;92.20;;;;;;10090744;29;20040;-88
2022/05/14 21:58:22;;;;;;;10.00;5.30;;;12.50;92.20;;;;;;10084445;29;20500;-89
2022/05/14 22:03:23;;;;;;;13.68;4.65;;;12.50;92.40;;;;;;10105184;29;20036;-89
2022/05/14 22:08:24;;;;;;;10.05;4.50;;;12.50;92.40;;;;;;10109430;29;20505;-87
2022/05/14 22:13:25;;;;;;;9.93;4.80;;;12.40;92.20;;;;;;10106959;29;20095;-88
2022/05/14 22:18:26;;;;;;;7.90;4.60;;;12.30;92.50;;;;;;10093837;29;20049;-88
2022/05/14 22:23:27;;;;;;;5.95;4.05;;;12.30;92.60;;;;;;10102447;29;20136;-88
2022/05/14 22:28:27;;;;;;;15.15;5.00;;;12.40;92.90;;;;;;10085508;29;20029;-88
2022/05/14 22:33:28;;;;;;;10.10;4.40;;;12.50;92.80;;;;;;10086388;29;20677;-89
2022/05/14 22:38:29;;;;;;;10.25;4.60;;;12.60;93.20;;;;;;10108276;29;20041;-90
2022/05/14 22:43:36;;;;;;;5.78;3.47;;;12.60;93.60;;;;;;10087547;29;20037;-87
2022/05/14 22:48:39;;;;;;;14.52;5.07;;;12.50;93.90;;;;;;10119693;29;20067;-89
2022/05/14 22:53:41;;;;;;;11.52;5.35;;;12.40;93.50;;;;;;10087249;29;20873;-90
2022/05/14 22:58:42;;;;;;;12.40;5.80;;;12.30;93.80;;;;;;10088732;29;20049;-89
2022/05/14 23:03:43;;;;;;;6.30;4.38;;;12.10;93.90;;;;;;10093533;29;20058;-89
2022/05/14 23:08:44;;;;;;;12.23;4.97;;;12.00;93.60;;;;;;10096779;29;20549;-90
2022/05/14 23:13:45;;;;;;;13.75;4.82;;;11.80;94.10;;;;;;10092198;29;20029;-89
2022/05/14 23:18:46;;;;;;;10.88;4.93;;;11.60;94.60;;;;;;10075310;29;20025;-89
2022/05/14 23:23:47;;;;;;;10.18;5.57;;;11.50;94.80;;;;;;10072197;29;20025;-88
2022/05/14 23:28:48;;;;;;;12.38;5.65;;;11.50;95.30;;;;;;10072964;29;20033;-90
2022/05/14 23:33:49;;;;;;;13.68;5.82;;;11.50;96.30;;;;;;10100435;29;20093;-89
2022/05/14 23:38:53;;;;;;;13.27;7.25;;;11.60;97.30;;;;;;10103965;29;20513;-90
2022/05/14 23:43:53;;;;;;;12.02;7.50;;;11.60;97.60;;;;;;10102156;29;20553;-88
2022/05/14 23:48:54;;;;;;;12.75;6.53;;;11.60;97.20;;;;;;10109821;29;20020;-89
2022/05/14 23:53:55;;;;;;;16.33;5.90;;;11.50;98.20;;;;;;10105919;29;20071;-88
